sensor_id;sensor_type;location;lat;lon;timestamp;P1;durP1;ratioP1;P2;durP2;ratioP2
20110;SDS011;10216;42.658;23.248;2023-05-10T00:01:12;0.30;;;0.30;;
20110;SDS011;10216;42.658;23.248;2023-05-10T00:03:37;0.70;;;0.60;;
20110;SDS011;10216;42.658;23.248;2023-05-10T00:06:03;1.10;;;1.00;;
20110;SDS011;10216;42.658;23.248;2023-05-10T00:08:28;0.50;;;0.50;;
20110;SDS011;10216;42.658;23.248;2023-05-10T00:10:53;0.57;;;0.57;;
20110;SDS011;10216;42.658;23.248;2023-05-10T00:13:18;0.60;;;0.60;;
20110;SDS011;10216;42.658;23.248;2023-05-10T00:15:43;0.40;;;0.40;;
20110;SDS011;10216;42.658;23.248;2023-05-10T00:18:09;1.03;;;0.60;;
20110;SDS011;10216;42.658;23.248;2023-05-10T00:20:34;1.20;;;0.80;;
20110;SDS011;10216;42.658;23.248;2023-05-10T00:22:59;0.40;;;0.40;;
20110;SDS011;10216;42.658;23.248;2023-05-10T00:25:25;2.90;;;0.63;;
20110;SDS011;10216;42.658;23.248;2023-05-10T00:27:50;0.50;;;0.50;;
20110;SDS011;10216;42.658;23.248;2023-05-10T00:30:15;0.70;;;0.70;;
20110;SDS011;10216;42.658;23.248;2023-05-10T00:32:40;1.13;;;0.73;;
20110;SDS011;10216;42.658;23.248;2023-05-10T00:35:06;0.57;;;0.57;;
20110;SDS011;10216;42.658;23.248;2023-05-10T00:37:31;0.60;;;0.60;;
20110;SDS011;10216;42.658;23.248;2023-05-10T00:39:56;1.20;;;1.10;;
20110;SDS011;10216;42.658;23.248;2023-05-10T00:42:22;0.90;;;0.90;;
20110;SDS011;10216;42.658;23.248;2023-05-10T00:44:47;0.40;;;0.40;;
20110;SDS011;10216;42.658;23.248;2023-05-10T00:47:12;0.57;;;0.57;;
20110;SDS011;10216;42.658;23.248;2023-05-10T00:49:38;0.63;;;0.63;;
20110;SDS011;10216;42.658;23.248;2023-05-10T00:52:03;0.60;;;0.60;;
20110;SDS011;10216;42.658;23.248;2023-05-10T00:54:28;0.50;;;0.50;;
20110;SDS011;10216;42.658;23.248;2023-05-10T00:56:54;1.33;;;1.23;;
20110;SDS011;10216;42.658;23.248;2023-05-10T00:59:19;0.70;;;0.70;;
20110;SDS011;10216;42.658;23.248;2023-05-10T01:01:45;0.97;;;0.67;;
20110;SDS011;10216;42.658;23.248;2023-05-10T01:04:11;0.87;;;0.87;;
20110;SDS011;10216;42.658;23.248;2023-05-10T01:06:37;1.13;;;1.03;;
20110;SDS011;10216;42.658;23.248;2023-05-10T01:09:03;1.53;;;1.43;;
20110;SDS011;10216;42.658;23.248;2023-05-10T01:11:28;1.97;;;1.17;;
20110;SDS011;10216;42.658;23.248;2023-05-10T01:13:55;0.40;;;0.40;;
20110;SDS011;10216;42.658;23.248;2023-05-10T01:16:21;1.83;;;0.63;;
20110;SDS011;10216;42.658;23.248;2023-05-10T01:18:47;1.13;;;1.07;;
20110;SDS011;10216;42.658;23.248;2023-05-10T01:21:15;0.60;;;0.60;;
20110;SDS011;10216;42.658;23.248;2023-05-10T01:29:03;1.00;;;0.90;;
20110;SDS011;10216;42.658;23.248;2023-05-10T01:34:07;1.30;;;0.73;;
20110;SDS011;10216;42.658;23.248;2023-05-10T01:36:42;0.73;;;0.73;;
20110;SDS011;10216;42.658;23.248;2023-05-10T01:39:12;0.60;;;0.60;;
20110;SDS011;10216;42.658;23.248;2023-05-10T01:49:34;0.30;;;0.30;;
20110;SDS011;10216;42.658;23.248;2023-05-10T01:52:06;0.20;;;0.20;;
20110;SDS011;10216;42.658;23.248;2023-05-10T01:54:33;0.47;;;0.47;;
20110;SDS011;10216;42.658;23.248;2023-05-10T01:57:00;0.50;;;0.50;;
20110;SDS011;10216;42.658;23.248;2023-05-10T01:59:29;0.63;;;0.63;;
20110;SDS011;10216;42.658;23.248;2023-05-10T02:01:56;0.80;;;0.80;;
20110;SDS011;10216;42.658;23.248;2023-05-10T02:04:22;0.30;;;0.30;;
20110;SDS011;10216;42.658;23.248;2023-05-10T02:06:48;0.83;;;0.40;;
20110;SDS011;10216;42.658;23.248;2023-05-10T02:09:15;1.50;;;1.20;;
20110;SDS011;10216;42.658;23.248;2023-05-10T02:11:42;0.87;;;0.53;;
20110;SDS011;10216;42.658;23.248;2023-05-10T02:14:07;0.60;;;0.60;;
20110;SDS011;10216;42.658;23.248;2023-05-10T02:16:34;1.27;;;0.40;;
20110;SDS011;10216;42.658;23.248;2023-05-10T02:19:00;0.53;;;0.53;;
20110;SDS011;10216;42.658;23.248;2023-05-10T02:21:26;0.10;;;0.10;;
20110;SDS011;10216;42.658;23.248;2023-05-10T02:23:52;0.30;;;0.30;;
20110;SDS011;10216;42.658;23.248;2023-05-10T02:26:19;0.50;;;0.50;;
20110;SDS011;10216;42.658;23.248;2023-05-10T02:28:46;0.30;;;0.30;;
20110;SDS011;10216;42.658;23.248;2023-05-10T02:31:12;0.37;;;0.37;;
20110;SDS011;10216;42.658;23.248;2023-05-10T02:33:40;0.33;;;0.33;;
20110;SDS011;10216;42.658;23.248;2023-05-10T02:36:07;0.50;;;0.50;;
20110;SDS011;10216;42.658;23.248;2023-05-10T02:38:33;0.40;;;0.40;;
20110;SDS011;10216;42.658;23.248;2023-05-10T02:41:00;0.40;;;0.40;;
20110;SDS011;10216;42.658;23.248;2023-05-10T02:43:26;0.37;;;0.37;;
20110;SDS011;10216;42.658;23.248;2023-05-10T02:45:54;0.57;;;0.40;;
20110;SDS011;10216;42.658;23.248;2023-05-10T02:48:20;0.40;;;0.40;;
20110;SDS011;10216;42.658;23.248;2023-05-10T02:50:45;0.20;;;0.20;;
20110;SDS011;10216;42.658;23.248;2023-05-10T02:53:18;0.10;;;0.10;;
20110;SDS011;10216;42.658;23.248;2023-05-10T02:55:46;0.30;;;0.30;;
20110;SDS011;10216;42.658;23.248;2023-05-10T02:58:14;0.10;;;0.10;;
20110;SDS011;10216;42.658;23.248;2023-05-10T03:00:39;0.10;;;0.10;;
20110;SDS011;10216;42.658;23.248;2023-05-10T03:03:04;0.10;;;0.10;;
20110;SDS011;10216;42.658;23.248;2023-05-10T03:05:30;0.10;;;0.10;;
20110;SDS011;10216;42.658;23.248;2023-05-10T03:07:55;0.33;;;0.33;;
20110;SDS011;10216;42.658;23.248;2023-05-10T03:10:22;0.30;;;0.30;;
20110;SDS011;10216;42.658;23.248;2023-05-10T03:20:24;0.10;;;0.10;;
20110;SDS011;10216;42.658;23.248;2023-05-10T03:22:55;0.10;;;0.10;;
20110;SDS011;10216;42.658;23.248;2023-05-10T03:25:21;0.20;;;0.20;;
20110;SDS011;10216;42.658;23.248;2023-05-10T03:27:46;0.10;;;0.10;;
20110;SDS011;10216;42.658;23.248;2023-05-10T03:30:12;0.10;;;0.10;;
20110;SDS011;10216;42.658;23.248;2023-05-10T03:32:38;0.20;;;0.20;;
20110;SDS011;10216;42.658;23.248;2023-05-10T03:35:10;0.10;;;0.10;;
20110;SDS011;10216;42.658;23.248;2023-05-10T03:37:36;0.20;;;0.20;;
20110;SDS011;10216;42.658;23.248;2023-05-10T03:40:02;0.10;;;0.10;;
20110;SDS011;10216;42.658;23.248;2023-05-10T03:42:27;0.10;;;0.10;;
20110;SDS011;10216;42.658;23.248;2023-05-10T03:44:52;0.10;;;0.10;;
20110;SDS011;10216;42.658;23.248;2023-05-10T03:47:18;0.27;;;0.27;;
20110;SDS011;10216;42.658;23.248;2023-05-10T03:49:43;0.10;;;0.10;;
20110;SDS011;10216;42.658;23.248;2023-05-10T03:52:08;0.10;;;0.10;;
20110;SDS011;10216;42.658;23.248;2023-05-10T03:54:33;0.10;;;0.10;;
20110;SDS011;10216;42.658;23.248;2023-05-10T03:56:58;0.10;;;0.10;;
20110;SDS011;10216;42.658;23.248;2023-05-10T03:59:25;0.37;;;0.30;;
20110;SDS011;10216;42.658;23.248;2023-05-10T04:01:50;0.57;;;0.57;;
20110;SDS011;10216;42.658;23.248;2023-05-10T04:04:15;0.30;;;0.30;;
20110;SDS011;10216;42.658;23.248;2023-05-10T04:06:43;0.20;;;0.20;;
20110;SDS011;10216;42.658;23.248;2023-05-10T04:09:08;0.13;;;0.13;;
20110;SDS011;10216;42.658;23.248;2023-05-10T04:11:34;0.10;;;0.10;;
20110;SDS011;10216;42.658;23.248;2023-05-10T04:13:59;0.10;;;0.10;;
20110;SDS011;10216;42.658;23.248;2023-05-10T04:16:24;0.87;;;0.87;;
20110;SDS011;10216;42.658;23.248;2023-05-10T04:18:49;0.63;;;0.50;;
20110;SDS011;10216;42.658;23.248;2023-05-10T04:21:15;0.40;;;0.40;;
20110;SDS011;10216;42.658;23.248;2023-05-10T04:23:40;0.20;;;0.20;;
20110;SDS011;10216;42.658;23.248;2023-05-10T04:26:06;0.10;;;0.10;;
20110;SDS011;10216;42.658;23.248;2023-05-10T04:28:31;0.10;;;0.10;;
20110;SDS011;10216;42.658;23.248;2023-05-10T04:33:28;0.10;;;0.10;;
20110;SDS011;10216;42.658;23.248;2023-05-10T04:35:53;0.30;;;0.30;;
20110;SDS011;10216;42.658;23.248;2023-05-10T04:38:18;0.10;;;0.10;;
20110;SDS011;10216;42.658;23.248;2023-05-10T04:40:44;0.10;;;0.10;;
20110;SDS011;10216;42.658;23.248;2023-05-10T04:43:09;0.20;;;0.20;;
20110;SDS011;10216;42.658;23.248;2023-05-10T04:45:34;0.10;;;0.10;;
20110;SDS011;10216;42.658;23.248;2023-05-10T04:47:59;0.10;;;0.10;;
20110;SDS011;10216;42.658;23.248;2023-05-10T04:50:25;0.20;;;0.20;;
20110;SDS011;10216;42.658;23.248;2023-05-10T04:52:50;0.57;;;0.30;;
20110;SDS011;10216;42.658;23.248;2023-05-10T04:55:15;0.20;;;0.20;;
20110;SDS011;10216;42.658;23.248;2023-05-10T04:57:41;0.33;;;0.33;;
20110;SDS011;10216;42.658;23.248;2023-05-10T05:00:06;0.20;;;0.20;;
20110;SDS011;10216;42.658;23.248;2023-05-10T05:02:31;0.10;;;0.10;;
20110;SDS011;10216;42.658;23.248;2023-05-10T05:04:57;0.10;;;0.10;;
20110;SDS011;10216;42.658;23.248;2023-05-10T05:07:22;0.10;;;0.10;;
20110;SDS011;10216;42.658;23.248;2023-05-10T05:09:48;0.30;;;0.30;;
20110;SDS011;10216;42.658;23.248;2023-05-10T05:12:13;0.40;;;0.40;;
20110;SDS011;10216;42.658;23.248;2023-05-10T05:14:39;0.47;;;0.47;;
20110;SDS011;10216;42.658;23.248;2023-05-10T05:17:04;0.10;;;0.10;;
20110;SDS011;10216;42.658;23.248;2023-05-10T05:19:30;0.10;;;0.10;;
20110;SDS011;10216;42.658;23.248;2023-05-10T05:21:55;0.10;;;0.10;;
20110;SDS011;10216;42.658;23.248;2023-05-10T05:24:21;0.40;;;0.40;;
20110;SDS011;10216;42.658;23.248;2023-05-10T05:26:46;0.30;;;0.30;;
20110;SDS011;10216;42.658;23.248;2023-05-10T05:29:12;0.30;;;0.30;;
20110;SDS011;10216;42.658;23.248;2023-05-10T05:31:37;0.10;;;0.10;;
20110;SDS011;10216;42.658;23.248;2023-05-10T05:34:02;0.53;;;0.53;;
20110;SDS011;10216;42.658;23.248;2023-05-10T05:36:28;0.10;;;0.10;;
20110;SDS011;10216;42.658;23.248;2023-05-10T05:38:53;0.53;;;0.53;;
20110;SDS011;10216;42.658;23.248;2023-05-10T05:41:18;0.30;;;0.30;;
20110;SDS011;10216;42.658;23.248;2023-05-10T05:43:43;0.50;;;0.50;;
20110;SDS011;10216;42.658;23.248;2023-05-10T05:46:09;0.10;;;0.10;;
20110;SDS011;10216;42.658;23.248;2023-05-10T05:48:34;0.10;;;0.10;;
20110;SDS011;10216;42.658;23.248;2023-05-10T05:50:59;0.90;;;0.83;;
20110;SDS011;10216;42.658;23.248;2023-05-10T05:53:24;0.10;;;0.10;;
20110;SDS011;10216;42.658;23.248;2023-05-10T05:55:53;0.10;;;0.10;;
20110;SDS011;10216;42.658;23.248;2023-05-10T05:58:19;0.10;;;0.10;;
20110;SDS011;10216;42.658;23.248;2023-05-10T06:00:44;0.40;;;0.40;;
20110;SDS011;10216;42.658;23.248;2023-05-10T06:03:10;0.20;;;0.20;;
20110;SDS011;10216;42.658;23.248;2023-05-10T06:05:35;0.23;;;0.23;;
20110;SDS011;10216;42.658;23.248;2023-05-10T06:08:00;0.40;;;0.40;;
20110;SDS011;10216;42.658;23.248;2023-05-10T06:10:26;1.10;;;0.30;;
20110;SDS011;10216;42.658;23.248;2023-05-10T06:12:51;0.27;;;0.27;;
20110;SDS011;10216;42.658;23.248;2023-05-10T06:15:17;0.33;;;0.33;;
20110;SDS011;10216;42.658;23.248;2023-05-10T06:17:43;0.10;;;0.10;;
20110;SDS011;10216;42.658;23.248;2023-05-10T06:20:09;0.23;;;0.23;;
20110;SDS011;10216;42.658;23.248;2023-05-10T06:22:34;0.20;;;0.20;;
20110;SDS011;10216;42.658;23.248;2023-05-10T06:25:00;0.27;;;0.27;;
20110;SDS011;10216;42.658;23.248;2023-05-10T06:27:25;0.27;;;0.27;;
20110;SDS011;10216;42.658;23.248;2023-05-10T06:29:50;0.43;;;0.43;;
20110;SDS011;10216;42.658;23.248;2023-05-10T06:32:16;0.20;;;0.20;;
20110;SDS011;10216;42.658;23.248;2023-05-10T06:34:42;0.10;;;0.10;;
20110;SDS011;10216;42.658;23.248;2023-05-10T06:37:08;0.27;;;0.27;;
20110;SDS011;10216;42.658;23.248;2023-05-10T06:39:33;0.50;;;0.50;;
20110;SDS011;10216;42.658;23.248;2023-05-10T06:41:59;0.40;;;0.40;;
20110;SDS011;10216;42.658;23.248;2023-05-10T06:44:24;0.40;;;0.40;;
20110;SDS011;10216;42.658;23.248;2023-05-10T06:46:49;0.93;;;0.93;;
20110;SDS011;10216;42.658;23.248;2023-05-10T06:49:15;1.60;;;0.80;;
20110;SDS011;10216;42.658;23.248;2023-05-10T06:51:40;1.43;;;1.17;;
20110;SDS011;10216;42.658;23.248;2023-05-10T06:54:06;0.67;;;0.67;;
20110;SDS011;10216;42.658;23.248;2023-05-10T06:56:31;0.60;;;0.60;;
20110;SDS011;10216;42.658;23.248;2023-05-10T06:58:57;1.87;;;0.73;;
20110;SDS011;10216;42.658;23.248;2023-05-10T07:01:22;0.40;;;0.40;;
20110;SDS011;10216;42.658;23.248;2023-05-10T07:03:48;0.50;;;0.50;;
20110;SDS011;10216;42.658;23.248;2023-05-10T07:06:13;0.50;;;0.50;;
20110;SDS011;10216;42.658;23.248;2023-05-10T07:08:38;1.43;;;1.13;;
20110;SDS011;10216;42.658;23.248;2023-05-10T07:11:04;1.53;;;1.43;;
20110;SDS011;10216;42.658;23.248;2023-05-10T07:13:32;0.90;;;0.90;;
20110;SDS011;10216;42.658;23.248;2023-05-10T07:15:58;1.37;;;0.77;;
20110;SDS011;10216;42.658;23.248;2023-05-10T07:18:24;0.70;;;0.70;;
20110;SDS011;10216;42.658;23.248;2023-05-10T07:20:49;0.73;;;0.73;;
20110;SDS011;10216;42.658;23.248;2023-05-10T07:23:14;1.40;;;1.30;;
20110;SDS011;10216;42.658;23.248;2023-05-10T07:25:40;1.57;;;0.70;;
20110;SDS011;10216;42.658;23.248;2023-05-10T07:28:05;0.90;;;0.90;;
20110;SDS011;10216;42.658;23.248;2023-05-10T07:30:30;0.93;;;0.80;;
20110;SDS011;10216;42.658;23.248;2023-05-10T07:32:56;1.07;;;1.07;;
20110;SDS011;10216;42.658;23.248;2023-05-10T07:35:21;1.00;;;1.00;;
20110;SDS011;10216;42.658;23.248;2023-05-10T07:37:46;0.87;;;0.87;;
20110;SDS011;10216;42.658;23.248;2023-05-10T07:40:11;1.17;;;0.90;;
20110;SDS011;10216;42.658;23.248;2023-05-10T07:42:37;1.20;;;1.10;;
20110;SDS011;10216;42.658;23.248;2023-05-10T07:45:03;3.07;;;0.97;;
20110;SDS011;10216;42.658;23.248;2023-05-10T07:47:28;0.90;;;0.90;;
20110;SDS011;10216;42.658;23.248;2023-05-10T07:49:54;0.80;;;0.80;;
20110;SDS011;10216;42.658;23.248;2023-05-10T07:52:19;4.47;;;1.80;;
20110;SDS011;10216;42.658;23.248;2023-05-10T07:54:44;1.13;;;1.07;;
20110;SDS011;10216;42.658;23.248;2023-05-10T07:57:10;0.83;;;0.80;;
20110;SDS011;10216;42.658;23.248;2023-05-10T07:59:35;0.93;;;0.93;;
20110;SDS011;10216;42.658;23.248;2023-05-10T08:02:00;3.33;;;1.40;;
20110;SDS011;10216;42.658;23.248;2023-05-10T08:04:25;2.20;;;2.03;;
20110;SDS011;10216;42.658;23.248;2023-05-10T08:06:51;1.53;;;1.43;;
20110;SDS011;10216;42.658;23.248;2023-05-10T08:09:16;2.17;;;1.40;;
20110;SDS011;10216;42.658;23.248;2023-05-10T08:11:42;1.07;;;1.00;;
20110;SDS011;10216;42.658;23.248;2023-05-10T08:14:07;1.60;;;1.50;;
20110;SDS011;10216;42.658;23.248;2023-05-10T08:16:33;1.20;;;0.97;;
20110;SDS011;10216;42.658;23.248;2023-05-10T08:18:59;1.33;;;1.10;;
20110;SDS011;10216;42.658;23.248;2023-05-10T08:21:24;1.53;;;1.43;;
20110;SDS011;10216;42.658;23.248;2023-05-10T08:23:49;1.63;;;1.07;;
20110;SDS011;10216;42.658;23.248;2023-05-10T08:26:15;2.93;;;1.53;;
20110;SDS011;10216;42.658;23.248;2023-05-10T08:28:40;1.03;;;1.00;;
20110;SDS011;10216;42.658;23.248;2023-05-10T08:31:05;1.50;;;1.40;;
20110;SDS011;10216;42.658;23.248;2023-05-10T08:33:31;3.07;;;1.87;;
20110;SDS011;10216;42.658;23.248;2023-05-10T08:35:56;2.17;;;1.87;;
20110;SDS011;10216;42.658;23.248;2023-05-10T08:38:21;2.40;;;1.63;;
20110;SDS011;10216;42.658;23.248;2023-05-10T08:40:46;1.70;;;1.47;;
20110;SDS011;10216;42.658;23.248;2023-05-10T08:43:13;3.97;;;2.10;;
20110;SDS011;10216;42.658;23.248;2023-05-10T08:45:40;4.43;;;1.83;;
20110;SDS011;10216;42.658;23.248;2023-05-10T08:48:06;4.50;;;1.77;;
20110;SDS011;10216;42.658;23.248;2023-05-10T08:50:33;1.77;;;1.20;;
20110;SDS011;10216;42.658;23.248;2023-05-10T08:53:00;2.10;;;1.37;;
20110;SDS011;10216;42.658;23.248;2023-05-10T08:55:26;1.80;;;1.50;;
20110;SDS011;10216;42.658;23.248;2023-05-10T08:57:51;2.10;;;1.37;;
20110;SDS011;10216;42.658;23.248;2023-05-10T09:00:17;3.30;;;1.40;;
20110;SDS011;10216;42.658;23.248;2023-05-10T09:02:43;2.80;;;1.30;;
20110;SDS011;10216;42.658;23.248;2023-05-10T09:05:09;2.20;;;1.53;;
20110;SDS011;10216;42.658;23.248;2023-05-10T09:07:35;1.40;;;1.20;;
20110;SDS011;10216;42.658;23.248;2023-05-10T09:10:00;1.97;;;1.33;;
20110;SDS011;10216;42.658;23.248;2023-05-10T09:12:26;3.20;;;1.93;;
20110;SDS011;10216;42.658;23.248;2023-05-10T09:14:51;1.83;;;1.50;;
20110;SDS011;10216;42.658;23.248;2023-05-10T09:17:17;1.77;;;1.53;;
20110;SDS011;10216;42.658;23.248;2023-05-10T09:19:42;1.27;;;1.17;;
20110;SDS011;10216;42.658;23.248;2023-05-10T09:22:07;1.97;;;1.67;;
20110;SDS011;10216;42.658;23.248;2023-05-10T09:24:33;3.13;;;1.60;;
20110;SDS011;10216;42.658;23.248;2023-05-10T09:26:58;1.30;;;1.17;;
20110;SDS011;10216;42.658;23.248;2023-05-10T09:29:23;1.60;;;1.50;;
20110;SDS011;10216;42.658;23.248;2023-05-10T09:31:49;1.50;;;1.40;;
20110;SDS011;10216;42.658;23.248;2023-05-10T09:34:20;1.40;;;1.30;;
20110;SDS011;10216;42.658;23.248;2023-05-10T09:36:53;1.27;;;1.17;;
20110;SDS011;10216;42.658;23.248;2023-05-10T09:39:19;1.47;;;1.37;;
20110;SDS011;10216;42.658;23.248;2023-05-10T09:41:44;2.17;;;1.50;;
20110;SDS011;10216;42.658;23.248;2023-05-10T09:44:09;2.03;;;1.70;;
20110;SDS011;10216;42.658;23.248;2023-05-10T09:46:35;2.00;;;1.53;;
20110;SDS011;10216;42.658;23.248;2023-05-10T09:49:01;1.20;;;1.10;;
20110;SDS011;10216;42.658;23.248;2023-05-10T09:51:26;1.10;;;1.00;;
20110;SDS011;10216;42.658;23.248;2023-05-10T09:56:35;2.53;;;1.97;;
20110;SDS011;10216;42.658;23.248;2023-05-10T09:59:02;1.33;;;1.27;;
20110;SDS011;10216;42.658;23.248;2023-05-10T10:01:28;1.90;;;1.50;;
20110;SDS011;10216;42.658;23.248;2023-05-10T10:03:54;2.00;;;1.87;;
20110;SDS011;10216;42.658;23.248;2023-05-10T10:06:19;1.33;;;1.23;;
20110;SDS011;10216;42.658;23.248;2023-05-10T10:08:44;3.57;;;1.73;;
20110;SDS011;10216;42.658;23.248;2023-05-10T10:11:10;0.90;;;0.90;;
20110;SDS011;10216;42.658;23.248;2023-05-10T10:13:35;1.47;;;1.37;;
20110;SDS011;10216;42.658;23.248;2023-05-10T10:16:00;1.30;;;1.20;;
20110;SDS011;10216;42.658;23.248;2023-05-10T10:18:25;1.87;;;1.77;;
20110;SDS011;10216;42.658;23.248;2023-05-10T10:20:52;1.47;;;1.00;;
20110;SDS011;10216;42.658;23.248;2023-05-10T10:23:19;1.40;;;1.30;;
20110;SDS011;10216;42.658;23.248;2023-05-10T10:25:44;1.53;;;1.37;;
20110;SDS011;10216;42.658;23.248;2023-05-10T10:30:41;2.00;;;1.80;;
20110;SDS011;10216;42.658;23.248;2023-05-10T10:35:51;2.00;;;1.73;;
20110;SDS011;10216;42.658;23.248;2023-05-10T10:38:17;1.47;;;1.37;;
20110;SDS011;10216;42.658;23.248;2023-05-10T10:40:42;1.83;;;1.63;;
20110;SDS011;10216;42.658;23.248;2023-05-10T10:43:26;1.83;;;1.60;;
20110;SDS011;10216;42.658;23.248;2023-05-10T10:48:36;1.83;;;1.70;;
20110;SDS011;10216;42.658;23.248;2023-05-10T10:51:01;3.57;;;1.87;;
20110;SDS011;10216;42.658;23.248;2023-05-10T10:53:27;1.63;;;1.40;;
20110;SDS011;10216;42.658;23.248;2023-05-10T10:56:02;1.33;;;1.23;;
20110;SDS011;10216;42.658;23.248;2023-05-10T10:58:30;1.67;;;1.30;;
20110;SDS011;10216;42.658;23.248;2023-05-10T11:03:35;1.73;;;1.43;;
20110;SDS011;10216;42.658;23.248;2023-05-10T11:06:01;1.90;;;1.80;;
20110;SDS011;10216;42.658;23.248;2023-05-10T11:08:47;1.60;;;1.50;;
20110;SDS011;10216;42.658;23.248;2023-05-10T11:11:14;2.10;;;1.60;;
20110;SDS011;10216;42.658;23.248;2023-05-10T11:13:40;1.73;;;1.53;;
20110;SDS011;10216;42.658;23.248;2023-05-10T11:16:19;1.70;;;1.33;;
20110;SDS011;10216;42.658;23.248;2023-05-10T11:21:19;3.33;;;1.80;;
20110;SDS011;10216;42.658;23.248;2023-05-10T11:26:12;1.07;;;1.07;;
20110;SDS011;10216;42.658;23.248;2023-05-10T11:28:41;1.73;;;1.53;;
20110;SDS011;10216;42.658;23.248;2023-05-10T11:31:07;1.90;;;1.30;;
20110;SDS011;10216;42.658;23.248;2023-05-10T11:33:42;2.07;;;1.77;;
20110;SDS011;10216;42.658;23.248;2023-05-10T11:36:10;3.17;;;1.60;;
20110;SDS011;10216;42.658;23.248;2023-05-10T11:38:36;1.17;;;1.07;;
20110;SDS011;10216;42.658;23.248;2023-05-10T11:41:01;2.10;;;1.77;;
20110;SDS011;10216;42.658;23.248;2023-05-10T11:43:26;1.47;;;1.27;;
20110;SDS011;10216;42.658;23.248;2023-05-10T11:45:55;1.10;;;1.00;;
20110;SDS011;10216;42.658;23.248;2023-05-10T11:48:20;2.57;;;1.43;;
20110;SDS011;10216;42.658;23.248;2023-05-10T11:50:48;1.53;;;1.13;;
20110;SDS011;10216;42.658;23.248;2023-05-10T11:53:14;1.63;;;1.20;;
20110;SDS011;10216;42.658;23.248;2023-05-10T11:55:39;3.27;;;1.97;;
20110;SDS011;10216;42.658;23.248;2023-05-10T11:58:04;1.50;;;1.40;;
20110;SDS011;10216;42.658;23.248;2023-05-10T12:00:30;1.30;;;1.20;;
20110;SDS011;10216;42.658;23.248;2023-05-10T12:02:55;1.87;;;1.00;;
20110;SDS011;10216;42.658;23.248;2023-05-10T12:05:21;1.87;;;1.30;;
20110;SDS011;10216;42.658;23.248;2023-05-10T12:07:46;3.40;;;1.83;;
20110;SDS011;10216;42.658;23.248;2023-05-10T12:10:12;2.03;;;1.43;;
20110;SDS011;10216;42.658;23.248;2023-05-10T12:12:45;1.93;;;1.70;;
20110;SDS011;10216;42.658;23.248;2023-05-10T12:15:21;1.00;;;0.83;;
20110;SDS011;10216;42.658;23.248;2023-05-10T12:17:46;1.60;;;1.30;;
20110;SDS011;10216;42.658;23.248;2023-05-10T12:20:15;1.87;;;1.77;;
20110;SDS011;10216;42.658;23.248;2023-05-10T12:22:54;1.20;;;1.10;;
20110;SDS011;10216;42.658;23.248;2023-05-10T12:25:21;1.50;;;1.27;;
20110;SDS011;10216;42.658;23.248;2023-05-10T12:27:48;1.47;;;1.37;;
20110;SDS011;10216;42.658;23.248;2023-05-10T12:30:13;2.10;;;1.53;;
20110;SDS011;10216;42.658;23.248;2023-05-10T12:32:43;1.53;;;1.37;;
20110;SDS011;10216;42.658;23.248;2023-05-10T12:35:09;1.70;;;1.50;;
20110;SDS011;10216;42.658;23.248;2023-05-10T12:37:34;0.97;;;0.90;;
20110;SDS011;10216;42.658;23.248;2023-05-10T12:40:04;1.10;;;1.10;;
20110;SDS011;10216;42.658;23.248;2023-05-10T12:42:30;2.23;;;1.67;;
20110;SDS011;10216;42.658;23.248;2023-05-10T12:44:56;1.63;;;1.53;;
20110;SDS011;10216;42.658;23.248;2023-05-10T12:47:22;1.67;;;1.40;;
20110;SDS011;10216;42.658;23.248;2023-05-10T12:49:47;1.20;;;1.10;;
20110;SDS011;10216;42.658;23.248;2023-05-10T12:52:12;1.03;;;1.00;;
20110;SDS011;10216;42.658;23.248;2023-05-10T12:54:37;2.27;;;1.57;;
20110;SDS011;10216;42.658;23.248;2023-05-10T12:57:03;2.23;;;1.70;;
20110;SDS011;10216;42.658;23.248;2023-05-10T12:59:28;1.27;;;1.17;;
20110;SDS011;10216;42.658;23.248;2023-05-10T13:01:53;1.37;;;1.30;;
20110;SDS011;10216;42.658;23.248;2023-05-10T13:04:18;2.10;;;1.63;;
20110;SDS011;10216;42.658;23.248;2023-05-10T13:06:44;1.27;;;1.17;;
20110;SDS011;10216;42.658;23.248;2023-05-10T13:09:09;1.50;;;1.40;;
20110;SDS011;10216;42.658;23.248;2023-05-10T13:11:35;2.00;;;1.43;;
20110;SDS011;10216;42.658;23.248;2023-05-10T13:14:00;1.97;;;1.60;;
20110;SDS011;10216;42.658;23.248;2023-05-10T13:16:25;2.50;;;1.50;;
20110;SDS011;10216;42.658;23.248;2023-05-10T13:18:50;4.80;;;3.10;;
20110;SDS011;10216;42.658;23.248;2023-05-10T13:21:16;4.73;;;2.07;;
20110;SDS011;10216;42.658;23.248;2023-05-10T13:23:41;2.30;;;2.10;;
20110;SDS011;10216;42.658;23.248;2023-05-10T13:26:06;1.80;;;1.50;;
20110;SDS011;10216;42.658;23.248;2023-05-10T13:28:32;1.27;;;1.20;;
20110;SDS011;10216;42.658;23.248;2023-05-10T13:30:57;2.23;;;1.37;;
20110;SDS011;10216;42.658;23.248;2023-05-10T13:33:22;1.30;;;1.20;;
20110;SDS011;10216;42.658;23.248;2023-05-10T13:35:47;1.37;;;1.13;;
20110;SDS011;10216;42.658;23.248;2023-05-10T13:38:13;1.57;;;1.47;;
20110;SDS011;10216;42.658;23.248;2023-05-10T13:40:38;1.27;;;1.17;;
20110;SDS011;10216;42.658;23.248;2023-05-10T13:43:03;1.00;;;1.00;;
20110;SDS011;10216;42.658;23.248;2023-05-10T13:45:29;1.10;;;1.00;;
20110;SDS011;10216;42.658;23.248;2023-05-10T13:47:54;1.50;;;1.40;;
20110;SDS011;10216;42.658;23.248;2023-05-10T13:50:19;1.30;;;1.20;;
20110;SDS011;10216;42.658;23.248;2023-05-10T13:52:44;1.00;;;0.90;;
20110;SDS011;10216;42.658;23.248;2023-05-10T13:55:10;1.67;;;1.33;;
20110;SDS011;10216;42.658;23.248;2023-05-10T13:57:37;1.53;;;1.20;;
20110;SDS011;10216;42.658;23.248;2023-05-10T14:00:02;2.00;;;1.30;;
20110;SDS011;10216;42.658;23.248;2023-05-10T14:02:28;0.97;;;0.87;;
20110;SDS011;10216;42.658;23.248;2023-05-10T14:04:53;1.53;;;1.40;;
20110;SDS011;10216;42.658;23.248;2023-05-10T14:07:18;1.40;;;1.30;;
20110;SDS011;10216;42.658;23.248;2023-05-10T14:09:44;2.60;;;1.20;;
20110;SDS011;10216;42.658;23.248;2023-05-10T14:12:09;1.50;;;1.40;;
20110;SDS011;10216;42.658;23.248;2023-05-10T14:14:34;1.67;;;1.57;;
20110;SDS011;10216;42.658;23.248;2023-05-10T14:17:00;1.23;;;1.13;;
20110;SDS011;10216;42.658;23.248;2023-05-10T14:19:25;2.13;;;1.27;;
20110;SDS011;10216;42.658;23.248;2023-05-10T14:21:51;1.67;;;1.57;;
20110;SDS011;10216;42.658;23.248;2023-05-10T14:24:17;2.17;;;1.77;;
20110;SDS011;10216;42.658;23.248;2023-05-10T14:26:42;8.37;;;2.80;;
20110;SDS011;10216;42.658;23.248;2023-05-10T14:29:07;2.37;;;1.60;;
20110;SDS011;10216;42.658;23.248;2023-05-10T14:31:32;1.40;;;1.30;;
20110;SDS011;10216;42.658;23.248;2023-05-10T14:33:58;3.23;;;1.60;;
20110;SDS011;10216;42.658;23.248;2023-05-10T14:36:24;6.17;;;3.40;;
20110;SDS011;10216;42.658;23.248;2023-05-10T14:38:49;3.03;;;1.60;;
20110;SDS011;10216;42.658;23.248;2023-05-10T14:41:15;3.97;;;2.23;;
20110;SDS011;10216;42.658;23.248;2023-05-10T14:43:42;5.53;;;3.17;;
20110;SDS011;10216;42.658;23.248;2023-05-10T14:46:07;3.10;;;1.73;;
20110;SDS011;10216;42.658;23.248;2023-05-10T14:48:33;1.23;;;1.13;;
20110;SDS011;10216;42.658;23.248;2023-05-10T14:50:58;1.67;;;1.50;;
20110;SDS011;10216;42.658;23.248;2023-05-10T14:53:36;4.53;;;1.87;;
20110;SDS011;10216;42.658;23.248;2023-05-10T14:56:01;1.70;;;1.50;;
20110;SDS011;10216;42.658;23.248;2023-05-10T14:58:27;2.90;;;2.60;;
20110;SDS011;10216;42.658;23.248;2023-05-10T15:00:53;2.03;;;1.40;;
20110;SDS011;10216;42.658;23.248;2023-05-10T15:03:18;1.67;;;1.57;;
20110;SDS011;10216;42.658;23.248;2023-05-10T15:05:43;2.40;;;2.20;;
20110;SDS011;10216;42.658;23.248;2023-05-10T15:08:08;2.93;;;1.90;;
20110;SDS011;10216;42.658;23.248;2023-05-10T15:10:34;1.77;;;1.53;;